Time;durP1;ratioP1;P1;durP2;ratioP2;P2;SDS_P1;SDS_P2;PMS_P1;PMS_P2;Temp;Humidity;BMP_temperature;BMP_pressure;BME280_temperature;BME280_humidity;BME280_pressure;Samples;Min_cycle;Max_cycle;Signal;HPM_P1;HPM_P2
2021/07/07 00:00:54;;;;;;;2.57;1.50;;;19.40;99.90;;;;;;4906958;29;20213;-90
2021/07/07 00:03:20;;;;;;;3.70;1.30;;;19.20;99.90;;;;;;4908986;29;20190;-90
2021/07/07 00:05:45;;;;;;;2.63;1.33;;;19.00;1.00;;;;;;4910266;29;20451;-92
2021/07/07 00:08:11;;;;;;;2.23;1.30;;;19.00;1.00;;;;;;4924525;29;20205;-91
2021/07/07 00:10:37;;;;;;;3.07;1.20;;;19.00;1.00;;;;;;4924756;29;20285;-92
2021/07/07 00:13:04;;;;;;;3.03;1.10;;;18.90;1.00;;;;;;4924587;29;20173;-92
2021/07/07 00:15:34;;;;;;;2.60;1.30;;;18.90;1.00;;;;;;4924096;29;20433;-93
2021/07/07 00:18:02;;;;;;;3.93;1.23;;;18.80;1.00;;;;;;4921075;29;20449;-90
2021/07/07 00:20:34;;;;;;;2.07;1.30;;;18.70;1.00;;;;;;4910744;29;20461;-92
2021/07/07 00:23:00;;;;;;;3.90;3.23;;;18.70;99.90;;;;;;4923549;29;20464;-91
2021/07/07 00:25:26;;;;;;;2.80;1.97;;;18.70;1.00;;;;;;4923203;29;20441;-91
2021/07/07 00:27:51;;;;;;;1.20;1.10;;;18.70;70.80;;;;;;4922178;29;20486;-92
2021/07/07 00:30:17;;;;;;;3.93;1.50;;;18.60;99.90;;;;;;4922947;29;20212;-92
2021/07/07 00:32:43;;;;;;;6.57;1.63;;;18.60;99.90;;;;;;4925553;29;20169;-92
2021/07/07 00:35:09;;;;;;;2.67;1.37;;;18.50;1.00;;;;;;4926424;29;20215;-91
2021/07/07 00:37:35;;;;;;;3.40;1.40;;;18.50;1.00;;;;;;4924736;29;20184;-92
2021/07/07 00:40:01;;;;;;;2.40;1.70;;;18.50;1.00;;;;;;4926597;29;20473;-93
2021/07/07 00:42:27;;;;;;;2.27;1.40;;;18.40;99.90;;;;;;4926141;29;20192;-91
2021/07/07 00:44:52;;;;;;;3.53;1.60;;;18.40;40.70;;;;;;4910532;29;20481;-91
2021/07/07 00:47:18;;;;;;;2.73;1.30;;;18.50;1.00;;;;;;4910029;29;20210;-91
2021/07/07 00:49:44;;;;;;;1.10;1.00;;;18.50;1.00;;;;;;4914398;29;20221;-90
2021/07/07 00:52:10;;;;;;;1.93;1.10;;;18.40;99.90;;;;;;4910314;29;20426;-91
2021/07/07 00:54:36;;;;;;;2.30;1.30;;;18.50;99.90;;;;;;4905785;29;20186;-91
2021/07/07 00:57:03;;;;;;;4.30;1.60;;;18.50;99.90;;;;;;4909213;29;20445;-91
2021/07/07 02:43:32;;;;;;;;;;;;;;;;;;;;;
2021/07/07 02:47:03;;;;;;;1.40;1.30;;;17.00;99.90;;;;;;4941639;29;20445;-88
2021/07/07 02:54:17;;;;;;;;;;;;;;;;;;;;;
2021/07/07 05:45:41;;;;;;;5.03;2.20;;;18.30;1.00;;;;;;4955404;29;20471;-91
2021/07/07 05:48:07;;;;;;;8.20;2.27;;;18.40;1.00;;;;;;4943670;29;20464;-91
2021/07/07 05:50:33;;;;;;;6.50;2.23;;;18.70;1.00;;;;;;4943071;29;20256;-92
2021/07/07 06:11:24;;;;;;;6.17;2.73;;;20.80;1.00;;;;;;5059246;23;20506;-94
2021/07/07 06:16:57;;;;;;;1.90;1.70;;;20.80;1.00;;;;;;5080283;23;20503;-93
2021/07/07 06:19:22;;;;;;;3.83;2.23;;;20.60;1.00;;;;;;4960242;28;20474;-93
2021/07/07 06:21:48;;;;;;;2.80;1.93;;;20.20;99.90;;;;;;4961626;28;20185;-93
2021/07/07 06:24:14;;;;;;;3.37;1.80;;;20.00;99.90;;;;;;4962468;29;20200;-93
2021/07/07 06:26:40;;;;;;;3.27;1.90;;;20.10;1.00;;;;;;4958140;29;20202;-93
2021/07/07 06:29:06;;;;;;;3.90;2.37;;;20.60;99.90;;;;;;4961864;23;20532;-93
2021/07/07 06:31:35;;;;;;;2.87;1.60;;;21.40;99.90;;;;;;4944115;28;20458;-92
2021/07/07 06:34:00;;;;;;;4.60;3.30;;;21.60;99.90;;;;;;4940885;29;20531;-92
2021/07/07 06:36:26;;;;;;;2.20;1.90;;;21.90;99.90;;;;;;4947216;29;20434;-91
2021/07/07 06:38:51;;;;;;;5.23;1.80;;;22.40;1.00;;;;;;4943365;29;20200;-93
2021/07/07 06:41:17;;;;;;;6.40;2.00;;;24.00;99.90;;;;;;4944622;29;20275;-93
2021/07/07 06:43:43;;;;;;;3.87;1.77;;;24.80;1.00;;;;;;4945913;29;20229;-93
2021/07/07 06:46:09;;;;;;;2.20;1.53;;;25.30;1.00;;;;;;4946275;29;20188;-93
2021/07/07 06:48:35;;;;;;;2.77;2.03;;;24.70;1.00;;;;;;4941644;29;20299;-93
2021/07/07 06:51:01;;;;;;;2.83;1.80;;;25.10;1.00;;;;;;4940131;29;20594;-92
2021/07/07 06:53:26;;;;;;;4.30;1.90;;;26.00;1.00;;;;;;4956995;29;20184;-92
2021/07/07 06:55:52;;;;;;;1.70;1.60;;;24.60;1.00;;;;;;4939766;29;20440;-92
2021/07/07 06:58:18;;;;;;;6.80;1.47;;;23.40;95.20;;;;;;4941056;29;20218;-90
2021/07/07 07:00:44;;;;;;;7.30;1.73;;;23.50;99.90;;;;;;5017661;23;20227;-92
2021/07/07 07:03:09;;;;;;;2.97;1.70;;;23.20;99.90;;;;;;4975010;28;20447;-93
2021/07/07 07:05:35;;;;;;;3.37;2.57;;;23.50;99.90;;;;;;4962172;28;20188;-96
2021/07/07 07:08:02;;;;;;;3.57;1.83;;;23.60;99.90;;;;;;4962129;28;20195;-94
2021/07/07 07:10:28;;;;;;;4.63;1.57;;;23.90;99.90;;;;;;4964776;28;20202;-92
2021/07/07 07:12:53;;;;;;;3.60;1.83;;;23.90;22.20;;;;;;4951974;28;20519;-92
2021/07/07 07:15:20;;;;;;;2.97;1.40;;;23.80;70.40;;;;;;4946000;29;20196;-92
2021/07/07 07:17:46;;;;;;;5.40;1.90;;;24.00;1.00;;;;;;4937529;29;20184;-91
2021/07/07 07:20:15;;;;;;;2.53;1.50;;;24.20;1.00;;;;;;4938081;29;20463;-92
2021/07/07 07:22:41;;;;;;;3.30;1.50;;;23.90;94.40;;;;;;4971778;28;20171;-94
2021/07/07 07:25:13;;;;;;;2.80;1.50;;;24.30;15.80;;;;;;4965060;23;20507;-94
2021/07/07 07:27:48;;;;;;;2.20;1.70;;;24.60;1.00;;;;;;4951012;29;20451;-93
2021/07/07 07:30:19;;;;;;;4.30;1.47;;;24.30;10.30;;;;;;4952265;29;20463;-92
2021/07/07 07:32:49;;;;;;;4.40;1.97;;;23.50;99.90;;;;;;4949250;29;20780;-92
2021/07/07 07:35:24;;;;;;;2.50;1.80;;;24.00;75.50;;;;;;4955981;29;20440;-93
2021/07/07 07:38:03;;;;;;;3.70;1.77;;;25.70;1.00;;;;;;4952470;28;20430;-92
2021/07/07 07:41:01;;;;;;;3.40;1.70;;;25.70;1.00;;;;;;4954192;29;20424;-93
2021/07/07 07:44:24;;;;;;;2.77;1.27;;;24.60;1.00;;;;;;4953625;28;20427;-93
2021/07/07 07:46:56;;;;;;;2.00;1.67;;;24.30;1.00;;;;;;4957067;29;20420;-92
2021/07/07 07:49:21;;;;;;;2.23;1.60;;;23.60;99.90;;;;;;4960321;29;20515;-92
2021/07/07 07:51:47;;;;;;;4.33;2.10;;;23.50;99.90;;;;;;4961439;28;20448;-91
2021/07/07 07:54:25;;;;;;;6.27;1.80;;;23.70;99.90;;;;;;4958202;29;20180;-93
2021/07/07 07:56:56;;;;;;;2.00;1.80;;;24.40;1.00;;;;;;4957025;29;20188;-92
2021/07/07 07:59:21;;;;;;;1.77;1.40;;;24.80;1.00;;;;;;4965114;28;21013;-93
2021/07/07 08:01:47;;;;;;;2.70;1.30;;;24.90;1.00;;;;;;4967656;28;20470;-92
2021/07/07 08:04:13;;;;;;;2.73;1.40;;;24.50;1.00;;;;;;4950279;29;20251;-93
2021/07/07 08:06:39;;;;;;;5.50;1.53;;;24.40;1.00;;;;;;4957220;29;20199;-91
2021/07/07 08:09:04;;;;;;;3.13;1.57;;;23.70;1.00;;;;;;4954258;29;20283;-92
2021/07/07 08:11:31;;;;;;;1.63;1.13;;;23.50;6.60;;;;;;4948955;29;20188;-92
2021/07/07 08:13:56;;;;;;;1.83;1.23;;;23.10;1.00;;;;;;4949504;29;20444;-93
2021/07/07 08:16:25;;;;;;;2.50;1.17;;;23.00;99.90;;;;;;4952995;29;20466;-93
2021/07/07 08:18:58;;;;;;;4.77;1.37;;;23.00;99.90;;;;;;4958165;29;20196;-95
2021/07/07 08:21:24;;;;;;;2.80;1.50;;;23.30;40.10;;;;;;4961734;28;20447;-92
2021/07/07 08:23:50;;;;;;;3.83;1.40;;;23.60;20.10;;;;;;4960275;29;20446;-93
2021/07/07 08:29:01;;;;;;;3.53;1.20;;;24.20;1.00;;;;;;5398120;23;20472;-96
2021/07/07 08:31:26;;;;;;;2.43;1.10;;;24.00;1.00;;;;;;4943006;28;20448;-95
2021/07/07 08:33:54;;;;;;;1.80;1.40;;;24.00;1.00;;;;;;4943109;28;20636;-96
2021/07/07 09:18:08;;;;;;;2.80;1.20;;;24.80;1.00;;;;;;4940168;29;20487;-93
2021/07/07 09:38:33;;;;;;;;;;;;;;;;;;;;;
2021/07/07 09:41:35;;;;;;;1.63;1.20;;;25.70;1.00;;;;;;4847092;29;20441;-93
2021/07/07 09:48:16;;;;;;;3.73;1.50;;;25.90;1.00;;;;;;4847200;29;20957;-93
2021/07/07 09:51:34;;;;;;;2.67;1.50;;;25.50;1.00;;;;;;4915721;29;20488;-95
2021/07/07 09:54:29;;;;;;;2.47;1.47;;;25.60;1.00;;;;;;4906988;29;20429;-92
2021/07/07 09:56:55;;;;;;;2.40;1.53;;;25.50;1.00;;;;;;4905238;29;20561;-93
2021/07/07 09:59:24;;;;;;;3.30;1.20;;;25.40;1.00;;;;;;4905289;29;20442;-93
2021/07/07 10:01:53;;;;;;;3.70;1.33;;;25.70;1.00;;;;;;4910090;29;20431;-91
2021/07/07 10:04:20;;;;;;;1.43;1.10;;;25.60;1.00;;;;;;4921153;29;20429;-92
2021/07/07 10:09:59;;;;;;;3.23;1.40;;;26.00;1.00;;;;;;4941033;28;20495;-94
2021/07/07 10:24:08;;;;;;;1.97;1.73;;;26.20;1.00;;;;;;4900396;29;20447;-94
2021/07/07 10:37:56;;;;;;;2.20;1.30;;;26.50;1.00;;;;;;4898603;23;20917;-68
2021/07/07 10:40:27;;;;;;;1.80;1.40;;;26.70;1.00;;;;;;4956669;29;20510;-68
2021/07/07 10:42:53;;;;;;;3.63;1.63;;;26.60;1.00;;;;;;4956684;29;20451;-69
2021/07/07 10:45:32;;;;;;;4.03;1.83;;;26.60;1.00;;;;;;4957101;29;20446;-69
2021/07/07 10:48:30;;;;;;;2.47;1.50;;;26.90;1.00;;;;;;4939495;29;20505;-69
2021/07/07 10:51:01;;;;;;;4.37;1.53;;;26.50;1.00;;;;;;4956410;29;20734;-68
2021/07/07 10:53:26;;;;;;;3.17;1.77;;;26.80;1.00;;;;;;4959347;29;20443;-69
2021/07/07 10:55:53;;;;;;;2.40;1.37;;;26.90;1.00;;;;;;4957037;29;20428;-68
2021/07/07 10:58:23;;;;;;;2.50;1.30;;;26.90;1.00;;;;;;4960675;28;20192;-68
2021/07/07 11:00:49;;;;;;;1.73;1.43;;;26.50;1.00;;;;;;4965373;28;20435;-69
2021/07/07 11:03:37;;;;;;;4.07;1.50;;;26.70;1.00;;;;;;4966266;28;20461;-68
2021/07/07 11:06:24;;;;;;;2.20;1.47;;;27.00;1.00;;;;;;4958986;28;20755;-68
2021/07/07 11:08:51;;;;;;;5.13;1.87;;;27.40;1.00;;;;;;4964777;28;20509;-69
2021/07/07 11:11:22;;;;;;;3.70;1.57;;;27.80;1.00;;;;;;4966489;28;20443;-68
2021/07/07 11:13:48;;;;;;;6.00;1.73;;;27.40;1.00;;;;;;4965405;28;20439;-65
2021/07/07 11:16:17;;;;;;;4.27;1.50;;;27.40;1.00;;;;;;4947385;28;20762;-66
2021/07/07 11:18:46;;;;;;;2.53;1.20;;;27.50;1.00;;;;;;4965371;28;20462;-66
2021/07/07 11:21:12;;;;;;;3.67;1.50;;;27.40;1.00;;;;;;4966176;28;20463;-66
2021/07/07 11:23:38;;;;;;;4.17;1.40;;;26.90;1.00;;;;;;4965701;28;20434;-64
2021/07/07 11:26:04;;;;;;;4.73;1.47;;;27.00;1.00;;;;;;4963633;28;20445;-65
2021/07/07 11:28:30;;;;;;;4.90;1.73;;;26.90;1.00;;;;;;4966131;28;20466;-64
2021/07/07 11:30:55;;;;;;;2.87;1.60;;;27.20;1.00;;;;;;4966144;28;20275;-65
2021/07/07 11:33:21;;;;;;;4.43;1.37;;;27.60;1.00;;;;;;4964418;28;20265;-65
2021/07/07 11:35:48;;;;;;;5.40;1.60;;;27.70;1.00;;;;;;4965310;28;20183;-65
2021/07/07 11:38:28;;;;;;;2.63;1.67;;;27.60;1.00;;;;;;4954672;28;20235;-65
2021/07/07 11:40:55;;;;;;;3.57;1.50;;;27.40;1.00;;;;;;4942625;29;20432;-65
2021/07/07 11:43:33;;;;;;;4.03;1.67;;;27.40;1.00;;;;;;4941050;29;20448;-66
2021/07/07 11:46:01;;;;;;;2.03;1.20;;;27.10;1.00;;;;;;4941005;29;20531;-65
2021/07/07 11:48:32;;;;;;;3.70;1.83;;;27.30;1.00;;;;;;4942076;29;20883;-65
2021/07/07 11:51:10;;;;;;;2.60;1.40;;;27.20;1.00;;;;;;4936407;29;20882;-65
2021/07/07 11:53:42;;;;;;;2.73;1.43;;;27.20;1.00;;;;;;4919293;29;20912;-66
2021/07/07 11:56:16;;;;;;;1.60;1.20;;;27.00;1.00;;;;;;4955775;29;20487;-66
2021/07/07 11:58:49;;;;;;;2.70;1.30;;;27.30;1.00;;;;;;4955969;29;20436;-65
2021/07/07 12:01:20;;;;;;;3.43;1.30;;;26.90;1.00;;;;;;4943438;29;20445;-66
2021/07/07 12:03:55;;;;;;;1.80;1.40;;;27.00;1.00;;;;;;4934557;29;20504;-65
2021/07/07 12:06:33;;;;;;;4.03;1.70;;;26.90;1.00;;;;;;4921087;29;20526;-65
2021/07/07 12:09:00;;;;;;;4.30;2.00;;;27.00;1.00;;;;;;4916122;29;20476;-65
2021/07/07 12:11:27;;;;;;;2.63;1.57;;;27.00;1.00;;;;;;4917975;29;20497;-65
2021/07/07 12:13:53;;;;;;;3.07;1.70;;;26.80;1.00;;;;;;4900993;29;20751;-65
2021/07/07 12:16:28;;;;;;;4.00;1.60;;;26.60;1.00;;;;;;4917694;29;20802;-66
2021/07/07 12:18:58;;;;;;;3.40;2.13;;;26.70;1.00;;;;;;4940839;29;20613;-66
2021/07/07 12:21:24;;;;;;;3.00;2.17;;;26.70;1.00;;;;;;4955767;29;20491;-65
2021/07/07 12:23:55;;;;;;;2.43;1.50;;;27.00;1.00;;;;;;4955455;29;20849;-66
2021/07/07 12:26:22;;;;;;;3.23;1.80;;;27.50;1.00;;;;;;4956086;28;20188;-66
2021/07/07 12:28:48;;;;;;;3.13;1.30;;;27.50;1.00;;;;;;4958827;29;20784;-66
2021/07/07 12:31:15;;;;;;;4.23;1.63;;;27.40;1.00;;;;;;4942228;29;20819;-66
2021/07/07 12:33:43;;;;;;;2.10;1.43;;;27.10;1.00;;;;;;4959352;29;20435;-66
2021/07/07 12:36:11;;;;;;;2.70;1.43;;;26.90;1.00;;;;;;4942647;29;20824;-66
2021/07/07 12:38:44;;;;;;;4.10;2.00;;;27.00;1.00;;;;;;4958863;28;20947;-66
2021/07/07 12:41:10;;;;;;;3.40;1.67;;;27.70;1.00;;;;;;4926178;29;20835;-66
2021/07/07 12:43:44;;;;;;;2.70;1.40;;;28.20;1.00;;;;;;4935572;29;20527;-66
2021/07/07 12:46:10;;;;;;;3.73;1.70;;;28.00;1.00;;;;;;4950087;29;20440;-67
2021/07/07 12:48:55;;;;;;;4.00;1.40;;;27.60;1.00;;;;;;4954310;29;20467;-66
2021/07/07 12:51:25;;;;;;;2.50;1.60;;;27.60;1.00;;;;;;4937316;29;20229;-67
2021/07/07 12:53:52;;;;;;;4.83;1.90;;;27.80;1.00;;;;;;4939563;29;20420;-67
2021/07/07 12:56:17;;;;;;;4.07;1.57;;;28.00;1.00;;;;;;4939344;29;20519;-67
2021/07/07 12:58:43;;;;;;;2.40;1.37;;;27.50;1.00;;;;;;4946818;29;20877;-67
2021/07/07 13:01:25;;;;;;;1.97;1.43;;;27.40;1.00;;;;;;4956622;29;20215;-67
2021/07/07 13:03:51;;;;;;;2.50;1.33;;;27.80;1.00;;;;;;4957136;29;20263;-67
2021/07/07 13:06:22;;;;;;;4.73;2.20;;;28.10;1.00;;;;;;4956474;29;20514;-67
2021/07/07 13:08:49;;;;;;;5.53;1.73;;;28.30;1.00;;;;;;4956229;29;20219;-67
2021/07/07 13:11:25;;;;;;;3.17;1.63;;;28.80;1.00;;;;;;4956383;29;20732;-67
2021/07/07 13:13:54;;;;;;;2.70;1.20;;;29.10;1.00;;;;;;4956739;29;20510;-67
2021/07/07 13:16:22;;;;;;;3.63;2.27;;;28.80;1.00;;;;;;4956317;29;20519;-66
2021/07/07 13:18:59;;;;;;;3.80;1.80;;;28.30;1.00;;;;;;4957204;29;20436;-66
2021/07/07 13:21:33;;;;;;;3.43;1.37;;;28.10;1.00;;;;;;4958177;29;20706;-66
2021/07/07 13:23:59;;;;;;;2.93;1.70;;;28.20;1.00;;;;;;4941129;29;20506;-66
2021/07/07 13:26:28;;;;;;;3.07;1.53;;;28.60;1.00;;;;;;4958061;29;20437;-66
2021/07/07 13:29:14;;;;;;;4.50;1.30;;;28.60;1.00;;;;;;4957690;29;20467;-66
2021/07/07 13:31:39;;;;;;;2.73;1.37;;;28.30;1.00;;;;;;4940973;29;20520;-66
2021/07/07 13:34:05;;;;;;;4.40;2.00;;;28.50;1.00;;;;;;4958044;29;21000;-67
2021/07/07 13:36:35;;;;;;;1.60;1.40;;;28.20;1.00;;;;;;4957734;29;20485;-67
2021/07/07 13:39:11;;;;;;;4.83;2.27;;;27.90;1.00;;;;;;4974342;28;20644;-68
2021/07/07 13:41:38;;;;;;;4.07;1.70;;;27.20;1.00;;;;;;4977244;28;20750;-67
2021/07/07 13:44:04;;;;;;;1.77;1.50;;;26.90;1.00;;;;;;4976907;28;20926;-65
2021/07/07 13:46:31;;;;;;;2.90;1.70;;;27.30;1.00;;;;;;4977189;28;20438;-67
2021/07/07 13:48:57;;;;;;;4.90;1.70;;;27.50;1.00;;;;;;4976691;28;20499;-66
2021/07/07 13:51:22;;;;;;;2.87;1.90;;;27.80;1.00;;;;;;4976162;28;21010;-67
2021/07/07 13:53:48;;;;;;;3.93;1.60;;;28.30;1.00;;;;;;4963439;28;20244;-68
2021/07/07 13:56:13;;;;;;;3.50;1.60;;;27.90;1.00;;;;;;4966075;28;20179;-67
2021/07/07 13:58:39;;;;;;;2.80;1.30;;;27.60;1.00;;;;;;4976630;28;20179;-67
2021/07/07 14:01:04;;;;;;;3.13;1.53;;;27.60;1.00;;;;;;4972245;28;20192;-68
2021/07/07 14:03:30;;;;;;;2.60;1.30;;;27.50;1.00;;;;;;4965076;28;20588;-67
2021/07/07 14:05:57;;;;;;;3.60;2.10;;;27.00;1.00;;;;;;4962429;28;20195;-67
2021/07/07 14:08:22;;;;;;;2.40;1.50;;;27.20;1.00;;;;;;4976401;28;20651;-66
2021/07/07 14:10:49;;;;;;;3.20;1.40;;;27.70;1.00;;;;;;4970644;28;20446;-67
2021/07/07 14:13:15;;;;;;;4.67;1.60;;;27.90;1.00;;;;;;4961052;28;20531;-67
2021/07/07 14:15:41;;;;;;;4.50;1.80;;;28.20;1.00;;;;;;4956978;29;20519;-67
2021/07/07 14:18:06;;;;;;;3.60;1.80;;;28.00;1.00;;;;;;4956759;29;20446;-67
2021/07/07 14:20:32;;;;;;;2.07;1.50;;;27.60;1.00;;;;;;4939906;29;20451;-67
2021/07/07 14:22:58;;;;;;;4.40;1.90;;;27.80;1.00;;;;;;4956833;29;20176;-67
2021/07/07 14:25:24;;;;;;;4.63;1.57;;;27.90;1.00;;;;;;4957029;29;20235;-67
2021/07/07 14:27:50;;;;;;;4.87;2.00;;;28.40;1.00;;;;;;4956777;29;20428;-67
2021/07/07 14:30:16;;;;;;;2.93;1.60;;;28.50;1.00;;;;;;4956653;29;20278;-67
2021/07/07 14:32:42;;;;;;;3.23;1.90;;;28.40;1.00;;;;;;4956899;29;20259;-67
2021/07/07 14:35:08;;;;;;;4.10;1.90;;;28.30;1.00;;;;;;4956835;29;20192;-66
2021/07/07 14:37:34;;;;;;;2.70;1.60;;;28.30;1.00;;;;;;4956535;29;20444;-67
2021/07/07 14:39:59;;;;;;;2.50;1.80;;;28.20;1.00;;;;;;4956384;29;20493;-67
2021/07/07 14:42:25;;;;;;;1.57;1.47;;;28.10;1.00;;;;;;4956608;29;20212;-67
2021/07/07 14:44:50;;;;;;;4.03;1.50;;;28.30;1.00;;;;;;4956399;29;20259;-65
2021/07/07 14:47:16;;;;;;;4.13;2.00;;;28.40;1.00;;;;;;4956371;29;20184;-65
2021/07/07 14:49:41;;;;;;;2.20;1.63;;;28.20;1.00;;;;;;4938721;29;20555;-68
2021/07/07 14:52:07;;;;;;;4.87;1.53;;;27.90;1.00;;;;;;4964285;28;20617;-66
2021/07/07 14:54:32;;;;;;;3.37;1.20;;;28.00;1.00;;;;;;4970117;28;20180;-66
2021/07/07 14:56:58;;;;;;;1.47;1.20;;;28.10;1.00;;;;;;4966578;28;20188;-65
2021/07/07 14:59:23;;;;;;;4.80;2.00;;;28.00;1.00;;;;;;4971653;28;20592;-66
2021/07/07 15:01:53;;;;;;;5.10;2.17;;;27.80;1.00;;;;;;4967447;28;20196;-66
2021/07/07 15:04:19;;;;;;;3.53;1.50;;;27.70;1.00;;;;;;4948546;29;20192;-66
2021/07/07 15:06:45;;;;;;;3.80;1.80;;;27.80;1.00;;;;;;4956362;29;20431;-65
2021/07/07 15:09:10;;;;;;;1.87;1.43;;;27.50;1.00;;;;;;4939287;29;20990;-66
2021/07/07 15:11:36;;;;;;;4.00;1.77;;;27.30;1.00;;;;;;4956405;29;20636;-67
2021/07/07 15:14:01;;;;;;;2.43;2.00;;;27.40;1.00;;;;;;4955413;29;20227;-65
2021/07/07 15:16:27;;;;;;;2.97;1.57;;;27.40;1.00;;;;;;4963646;28;20198;-66
2021/07/07 15:18:53;;;;;;;3.30;1.53;;;27.60;1.00;;;;;;4955929;29;20215;-66
2021/07/07 15:21:19;;;;;;;3.23;1.77;;;27.60;1.00;;;;;;4956061;29;20239;-66
2021/07/07 15:23:45;;;;;;;3.57;1.37;;;27.70;1.00;;;;;;4955911;29;20183;-67
2021/07/07 15:26:10;;;;;;;3.70;1.80;;;27.80;1.00;;;;;;4955844;29;20432;-67
2021/07/07 15:28:39;;;;;;;2.90;1.47;;;27.60;1.00;;;;;;4955588;29;20216;-66
2021/07/07 15:31:04;;;;;;;3.47;1.90;;;27.60;1.00;;;;;;4939113;29;20208;-66
2021/07/07 15:33:32;;;;;;;3.80;1.70;;;27.50;1.00;;;;;;4955716;29;20811;-66
2021/07/07 15:35:59;;;;;;;2.50;2.00;;;27.40;1.00;;;;;;4955652;29;20176;-66
2021/07/07 15:38:24;;;;;;;7.47;1.93;;;27.30;1.00;;;;;;4955404;29;20443;-66
2021/07/07 15:40:50;;;;;;;2.00;1.50;;;27.40;1.00;;;;;;4955687;29;20431;-67
2021/07/07 15:43:16;;;;;;;4.47;2.20;;;27.30;1.00;;;;;;4955513;29;20185;-66
2021/07/07 15:45:42;;;;;;;4.50;2.00;;;27.40;1.00;;;;;;4955660;29;20176;-66
2021/07/07 15:48:08;;;;;;;4.13;2.00;;;27.40;1.00;;;;;;4955252;29;20450;-66
2021/07/07 15:50:36;;;;;;;3.20;2.07;;;27.70;1.00;;;;;;4955626;29;20248;-66
2021/07/07 15:53:02;;;;;;;2.97;2.00;;;27.50;1.00;;;;;;4964075;28;20455;-67
2021/07/07 15:55:27;;;;;;;3.60;1.80;;;27.20;1.00;;;;;;4966273;28;20436;-66
2021/07/07 15:57:53;;;;;;;4.07;1.87;;;27.10;1.00;;;;;;4959530;28;20188;-67
2021/07/07 16:00:19;;;;;;;2.50;1.70;;;27.00;1.00;;;;;;4967300;28;20511;-66
2021/07/07 16:02:45;;;;;;;4.43;2.63;;;26.90;1.00;;;;;;4981445;28;20431;-69
2021/07/07 16:05:11;;;;;;;2.77;1.70;;;27.20;1.00;;;;;;4964098;28;20184;-69
2021/07/07 16:07:37;;;;;;;4.77;2.77;;;27.30;1.00;;;;;;4981068;28;20191;-69
2021/07/07 16:10:04;;;;;;;4.37;1.70;;;27.30;1.00;;;;;;4980912;28;20477;-69
2021/07/07 16:12:30;;;;;;;4.30;2.17;;;27.40;1.00;;;;;;4972858;28;20439;-68
2021/07/07 16:14:55;;;;;;;3.10;1.87;;;27.70;1.00;;;;;;4961820;28;20427;-69
2021/07/07 16:17:21;;;;;;;3.60;1.53;;;27.80;1.00;;;;;;4944554;29;20270;-70
2021/07/07 16:19:47;;;;;;;3.20;1.87;;;28.00;1.00;;;;;;4961652;28;20180;-73
2021/07/07 16:22:12;;;;;;;2.97;1.77;;;27.70;1.00;;;;;;4961552;29;20188;-69
2021/07/07 16:24:38;;;;;;;4.10;2.27;;;27.60;1.00;;;;;;4961787;29;20187;-69
2021/07/07 16:27:04;;;;;;;4.87;1.90;;;27.60;1.00;;;;;;4944724;29;20184;-69
2021/07/07 16:29:29;;;;;;;4.90;1.90;;;27.90;1.00;;;;;;4965211;28;20215;-70
2021/07/07 16:31:55;;;;;;;4.00;1.83;;;28.40;1.00;;;;;;4980863;28;20517;-69
2021/07/07 16:34:21;;;;;;;4.33;1.40;;;28.30;1.00;;;;;;4980905;28;20187;-69
2021/07/07 16:36:46;;;;;;;4.57;1.93;;;28.40;1.00;;;;;;4980627;28;20655;-69
2021/07/07 16:39:12;;;;;;;5.20;2.13;;;28.00;1.00;;;;;;4980654;28;20265;-69
2021/07/07 16:41:37;;;;;;;5.10;2.10;;;27.70;1.00;;;;;;4980804;28;20655;-69
2021/07/07 16:44:03;;;;;;;2.90;1.77;;;27.90;1.00;;;;;;4980684;28;20183;-70
2021/07/07 16:46:29;;;;;;;3.50;1.60;;;28.10;1.00;;;;;;4981244;28;20202;-69
2021/07/07 16:48:54;;;;;;;3.00;1.70;;;28.10;1.00;;;;;;4980567;28;20214;-70
2021/07/07 16:51:20;;;;;;;3.33;2.10;;;27.60;1.00;;;;;;4979949;28;20282;-70
2021/07/07 16:53:47;;;;;;;2.60;1.70;;;27.80;1.00;;;;;;4955574;28;20465;-70
2021/07/07 16:56:13;;;;;;;4.07;1.90;;;28.20;1.00;;;;;;4980700;28;20182;-68
2021/07/07 16:58:39;;;;;;;2.20;2.00;;;28.10;1.00;;;;;;4980466;28;20430;-67
2021/07/07 17:01:04;;;;;;;2.83;1.73;;;27.90;1.00;;;;;;4980679;28;20471;-67
2021/07/07 17:03:30;;;;;;;2.83;1.90;;;27.10;1.00;;;;;;4973709;28;20501;-67
2021/07/07 17:05:56;;;;;;;6.00;2.13;;;27.30;1.00;;;;;;4961236;29;20210;-67
2021/07/07 17:08:21;;;;;;;3.00;1.90;;;27.30;1.00;;;;;;4960880;29;20202;-66
2021/07/07 17:10:47;;;;;;;3.80;1.73;;;27.40;1.00;;;;;;4961110;29;20247;-66
2021/07/07 17:13:16;;;;;;;4.07;3.20;;;27.40;1.00;;;;;;4958253;28;20505;-68
2021/07/07 17:15:41;;;;;;;2.93;2.17;;;27.40;1.00;;;;;;4958282;29;20181;-65
2021/07/07 17:18:07;;;;;;;4.40;2.30;;;27.30;1.00;;;;;;4957747;29;20522;-66
2021/07/07 17:20:33;;;;;;;3.50;2.50;;;27.10;1.00;;;;;;4957748;29;20185;-66
2021/07/07 17:22:58;;;;;;;3.90;2.50;;;27.10;1.00;;;;;;4957804;29;20267;-66
2021/07/07 17:25:24;;;;;;;3.60;2.20;;;26.80;1.00;;;;;;4957910;29;20526;-66
2021/07/07 17:27:50;;;;;;;4.63;2.00;;;26.60;1.00;;;;;;4958050;29;20700;-66
2021/07/07 17:30:16;;;;;;;2.33;1.70;;;26.60;1.00;;;;;;4941014;29;20215;-66
2021/07/07 17:32:41;;;;;;;5.70;2.40;;;26.80;1.00;;;;;;4957914;29;20525;-66
2021/07/07 17:35:07;;;;;;;3.40;2.00;;;27.00;1.00;;;;;;4957726;29;20474;-66
2021/07/07 17:37:33;;;;;;;2.90;1.60;;;26.90;1.00;;;;;;4957598;29;20275;-66
2021/07/07 17:39:59;;;;;;;3.27;1.90;;;26.90;1.00;;;;;;4957663;29;20443;-69
2021/07/07 17:42:26;;;;;;;3.43;2.00;;;26.80;1.00;;;;;;4958109;29;20423;-71
2021/07/07 17:44:51;;;;;;;3.50;2.33;;;26.80;1.00;;;;;;4957625;29;20515;-70
2021/07/07 17:47:17;;;;;;;4.57;2.00;;;26.80;1.00;;;;;;4957393;29;20579;-70
2021/07/07 17:49:42;;;;;;;3.90;2.60;;;26.90;1.00;;;;;;4957531;29;20275;-71
2021/07/07 17:52:08;;;;;;;3.03;1.73;;;26.80;1.00;;;;;;4965301;28;20578;-70
2021/07/07 17:54:36;;;;;;;6.63;1.87;;;26.50;1.00;;;;;;4970890;28;20179;-71
2021/07/07 17:57:02;;;;;;;3.60;1.90;;;26.40;1.00;;;;;;4976802;28;20175;-70
2021/07/07 17:59:28;;;;;;;3.90;2.43;;;26.40;1.00;;;;;;4959584;28;20895;-70
2021/07/07 18:01:53;;;;;;;3.53;2.20;;;26.50;1.00;;;;;;4976670;28;20485;-70
2021/07/07 18:04:19;;;;;;;3.90;1.80;;;26.60;1.00;;;;;;4963331;28;20263;-70
2021/07/07 18:06:44;;;;;;;5.60;1.77;;;26.70;1.00;;;;;;4939720;29;20180;-70
2021/07/07 18:09:10;;;;;;;6.77;3.20;;;26.90;1.00;;;;;;4956919;29;20736;-70
2021/07/07 18:11:36;;;;;;;5.20;2.00;;;27.00;1.00;;;;;;4957331;29;20180;-71
2021/07/07 18:14:01;;;;;;;7.00;5.03;;;27.00;1.00;;;;;;4957943;29;20184;-70
2021/07/07 18:16:27;;;;;;;3.20;1.70;;;26.60;1.00;;;;;;4956881;29;20195;-70
2021/07/07 18:18:52;;;;;;;2.27;2.00;;;26.50;1.00;;;;;;4956922;29;20275;-70
2021/07/07 18:21:18;;;;;;;4.63;1.80;;;26.40;1.00;;;;;;4957132;29;20207;-67
2021/07/07 18:23:44;;;;;;;3.10;2.20;;;26.00;1.00;;;;;;4956135;28;20248;-66
2021/07/07 18:26:09;;;;;;;4.70;2.40;;;25.90;1.00;;;;;;4956657;29;20207;-67
2021/07/07 18:28:35;;;;;;;3.10;2.43;;;25.70;1.00;;;;;;4956596;29;20507;-66
2021/07/07 18:31:00;;;;;;;4.23;2.20;;;26.00;1.00;;;;;;4956858;29;20187;-66
2021/07/07 18:33:26;;;;;;;2.90;2.07;;;26.00;1.00;;;;;;4964930;28;20319;-66
2021/07/07 18:35:51;;;;;;;4.77;2.33;;;26.00;1.00;;;;;;4967294;28;20196;-66
2021/07/07 18:38:17;;;;;;;5.23;2.60;;;26.10;1.00;;;;;;4954964;28;20245;-65
2021/07/07 18:40:42;;;;;;;5.00;2.17;;;26.20;1.00;;;;;;4966632;28;20190;-65
2021/07/07 18:43:08;;;;;;;5.13;1.90;;;26.20;1.00;;;;;;4966503;28;20633;-65
2021/07/07 18:45:34;;;;;;;4.20;2.00;;;26.00;1.00;;;;;;4947664;28;20180;-65
2021/07/07 18:47:59;;;;;;;8.33;2.70;;;25.80;1.00;;;;;;4947785;28;20621;-65
2021/07/07 18:50:26;;;;;;;3.10;1.87;;;25.70;1.00;;;;;;4965748;28;20211;-65
2021/07/07 18:52:51;;;;;;;5.00;2.17;;;25.70;1.00;;;;;;4949588;28;20184;-65
2021/07/07 18:55:17;;;;;;;3.07;2.23;;;25.40;1.00;;;;;;4967392;28;20426;-65
2021/07/07 18:57:43;;;;;;;4.13;2.53;;;25.40;1.00;;;;;;4969567;28;20191;-65
2021/07/07 19:00:14;;;;;;;7.53;2.10;;;25.50;1.00;;;;;;4961997;28;20196;-65
2021/07/07 19:02:40;;;;;;;4.77;2.10;;;25.30;1.00;;;;;;4965051;28;20239;-65
2021/07/07 19:05:08;;;;;;;8.10;2.10;;;25.40;1.00;;;;;;4963259;28;20459;-69
2021/07/07 19:07:34;;;;;;;3.17;2.03;;;25.30;1.00;;;;;;4955776;28;20916;-69
2021/07/07 19:10:05;;;;;;;3.50;1.87;;;25.20;1.00;;;;;;4958651;28;20462;-69
2021/07/07 19:12:31;;;;;;;5.40;2.30;;;25.20;1.00;;;;;;4949000;28;20442;-69
2021/07/07 19:14:57;;;;;;;5.87;2.67;;;25.00;1.00;;;;;;4959587;28;20428;-69
2021/07/07 19:17:24;;;;;;;3.00;2.17;;;24.70;1.00;;;;;;4955860;29;20435;-65
2021/07/07 19:19:49;;;;;;;2.53;2.33;;;24.40;1.00;;;;;;4955996;29;20892;-66
2021/07/07 19:22:15;;;;;;;4.63;2.00;;;24.40;1.00;;;;;;4955947;29;20435;-65
2021/07/07 19:24:41;;;;;;;4.17;2.33;;;24.40;1.00;;;;;;4955867;29;20184;-66
2021/07/07 19:27:07;;;;;;;4.80;2.40;;;24.50;1.00;;;;;;4955531;29;20176;-66
2021/07/07 19:29:32;;;;;;;3.47;2.30;;;24.40;1.00;;;;;;4955836;29;20249;-64
2021/07/07 19:31:58;;;;;;;5.73;2.90;;;24.40;1.00;;;;;;4955699;29;20428;-64
2021/07/07 19:34:24;;;;;;;7.77;2.60;;;24.40;1.00;;;;;;4955784;29;20628;-64
2021/07/07 19:36:49;;;;;;;6.13;2.53;;;24.50;1.00;;;;;;4955287;28;20184;-64